sensor_id;sensor_type;location;lat;lon;timestamp;temperature;humidity
73780;SHT30;62093;37.614;15.072;2022-10-16T00:02:02;19.56;64.93
73780;SHT30;62093;37.614;15.072;2022-10-16T00:04:28;19.47;64.70
73780;SHT30;62093;37.614;15.072;2022-10-16T00:06:54;19.53;65.04
73780;SHT30;62093;37.614;15.072;2022-10-16T00:09:19;19.56;64.82
73780;SHT30;62093;37.614;15.072;2022-10-16T00:11:46;19.59;64.38
73780;SHT30;62093;37.614;15.072;2022-10-16T00:14:13;19.47;64.52
73780;SHT30;62093;37.614;15.072;2022-10-16T00:16:40;19.56;64.51
73780;SHT30;62093;37.614;15.072;2022-10-16T00:19:06;19.57;64.45
73780;SHT30;62093;37.614;15.072;2022-10-16T00:21:33;19.52;64.36
73780;SHT30;62093;37.614;15.072;2022-10-16T00:24:02;19.57;64.46
73780;SHT30;62093;37.614;15.072;2022-10-16T00:26:30;19.60;64.12
73780;SHT30;62093;37.614;15.072;2022-10-16T00:28:56;19.56;64.30
73780;SHT30;62093;37.614;15.072;2022-10-16T00:31:23;19.47;64.32
73780;SHT30;62093;37.614;15.072;2022-10-16T00:33:49;19.43;64.40
73780;SHT30;62093;37.614;15.072;2022-10-16T00:36:18;19.49;64.33
73780;SHT30;62093;37.614;15.072;2022-10-16T00:38:44;19.53;64.47
73780;SHT30;62093;37.614;15.072;2022-10-16T00:41:13;19.45;64.16
73780;SHT30;62093;37.614;15.072;2022-10-16T00:43:48;19.46;64.03
73780;SHT30;62093;37.614;15.072;2022-10-16T00:46:25;19.53;64.39
73780;SHT30;62093;37.614;15.072;2022-10-16T00:51:25;19.54;64.01
73780;SHT30;62093;37.614;15.072;2022-10-16T00:53:54;19.47;63.82
73780;SHT30;62093;37.614;15.072;2022-10-16T00:56:20;19.53;63.98
73780;SHT30;62093;37.614;15.072;2022-10-16T00:58:46;19.56;63.41
73780;SHT30;62093;37.614;15.072;2022-10-16T01:01:12;19.53;63.69
73780;SHT30;62093;37.614;15.072;2022-10-16T01:03:38;19.46;63.61
73780;SHT30;62093;37.614;15.072;2022-10-16T01:09:15;19.45;63.25
73780;SHT30;62093;37.614;15.072;2022-10-16T01:11:49;19.50;63.52
73780;SHT30;62093;37.614;15.072;2022-10-16T01:14:23;19.50;63.21
73780;SHT30;62093;37.614;15.072;2022-10-16T01:17:02;19.54;63.51
73780;SHT30;62093;37.614;15.072;2022-10-16T01:22:40;19.29;64.06
73780;SHT30;62093;37.614;15.072;2022-10-16T01:25:14;19.35;63.69
73780;SHT30;62093;37.614;15.072;2022-10-16T01:27:42;19.30;63.54
73780;SHT30;62093;37.614;15.072;2022-10-16T01:30:21;19.29;63.47
73780;SHT30;62093;37.614;15.072;2022-10-16T01:35:44;19.25;64.11
73780;SHT30;62093;37.614;15.072;2022-10-16T01:38:21;19.23;63.47
73780;SHT30;62093;37.614;15.072;2022-10-16T01:40:51;19.29;63.27
73780;SHT30;62093;37.614;15.072;2022-10-16T01:43:28;19.39;63.59
73780;SHT30;62093;37.614;15.072;2022-10-16T01:45:55;19.33;63.67
73780;SHT30;62093;37.614;15.072;2022-10-16T01:48:22;19.27;63.76
73780;SHT30;62093;37.614;15.072;2022-10-16T01:51:08;19.25;63.76
73780;SHT30;62093;37.614;15.072;2022-10-16T01:53:36;19.18;63.70
73780;SHT30;62093;37.614;15.072;2022-10-16T01:56:03;19.14;64.09
73780;SHT30;62093;37.614;15.072;2022-10-16T01:58:33;19.15;64.05
73780;SHT30;62093;37.614;15.072;2022-10-16T02:01:02;19.06;63.83
73780;SHT30;62093;37.614;15.072;2022-10-16T02:03:28;19.16;64.07
73780;SHT30;62093;37.614;15.072;2022-10-16T02:05:56;19.20;63.82
73780;SHT30;62093;37.614;15.072;2022-10-16T02:08:24;19.19;63.82
73780;SHT30;62093;37.614;15.072;2022-10-16T02:10:51;19.18;64.26
73780;SHT30;62093;37.614;15.072;2022-10-16T02:13:23;19.23;63.74
73780;SHT30;62093;37.614;15.072;2022-10-16T02:15:51;19.20;63.69
73780;SHT30;62093;37.614;15.072;2022-10-16T02:18:20;19.19;63.80
73780;SHT30;62093;37.614;15.072;2022-10-16T02:21:22;19.14;63.74
73780;SHT30;62093;37.614;15.072;2022-10-16T02:24:14;19.20;63.53
73780;SHT30;62093;37.614;15.072;2022-10-16T02:27:11;19.22;63.74
73780;SHT30;62093;37.614;15.072;2022-10-16T02:29:42;19.18;63.34
73780;SHT30;62093;37.614;15.072;2022-10-16T02:32:12;19.23;63.56
73780;SHT30;62093;37.614;15.072;2022-10-16T02:34:39;19.22;63.18
73780;SHT30;62093;37.614;15.072;2022-10-16T02:37:05;19.16;62.88
73780;SHT30;62093;37.614;15.072;2022-10-16T02:39:32;19.19;63.70
73780;SHT30;62093;37.614;15.072;2022-10-16T02:41:59;19.14;63.33
73780;SHT30;62093;37.614;15.072;2022-10-16T02:44:24;19.20;63.40
73780;SHT30;62093;37.614;15.072;2022-10-16T02:46:50;19.19;63.24
73780;SHT30;62093;37.614;15.072;2022-10-16T02:49:16;19.12;63.64
73780;SHT30;62093;37.614;15.072;2022-10-16T02:51:43;19.01;63.42
73780;SHT30;62093;37.614;15.072;2022-10-16T02:54:09;19.06;63.47
73780;SHT30;62093;37.614;15.072;2022-10-16T02:56:35;19.14;63.53
73780;SHT30;62093;37.614;15.072;2022-10-16T02:59:00;19.18;63.49
73780;SHT30;62093;37.614;15.072;2022-10-16T03:01:26;19.14;63.04
73780;SHT30;62093;37.614;15.072;2022-10-16T03:03:52;19.11;63.19
73780;SHT30;62093;37.614;15.072;2022-10-16T03:06:18;19.12;63.38
73780;SHT30;62093;37.614;15.072;2022-10-16T03:08:44;19.12;63.49
73780;SHT30;62093;37.614;15.072;2022-10-16T03:11:10;19.16;63.17
73780;SHT30;62093;37.614;15.072;2022-10-16T03:13:35;19.04;63.16
73780;SHT30;62093;37.614;15.072;2022-10-16T03:16:01;19.05;63.58
73780;SHT30;62093;37.614;15.072;2022-10-16T03:18:27;19.06;63.33
73780;SHT30;62093;37.614;15.072;2022-10-16T03:20:53;19.08;63.25
73780;SHT30;62093;37.614;15.072;2022-10-16T03:23:19;19.01;63.39
73780;SHT30;62093;37.614;15.072;2022-10-16T03:25:44;18.98;62.87
73780;SHT30;62093;37.614;15.072;2022-10-16T03:28:10;19.01;63.08
73780;SHT30;62093;37.614;15.072;2022-10-16T03:30:37;19.04;63.28
73780;SHT30;62093;37.614;15.072;2022-10-16T03:33:05;19.09;63.15
73780;SHT30;62093;37.614;15.072;2022-10-16T03:35:31;19.06;62.96
73780;SHT30;62093;37.614;15.072;2022-10-16T03:37:58;19.04;63.21
73780;SHT30;62093;37.614;15.072;2022-10-16T03:40:24;18.95;62.95
73780;SHT30;62093;37.614;15.072;2022-10-16T03:42:49;18.91;63.48
73780;SHT30;62093;37.614;15.072;2022-10-16T03:45:15;18.99;63.48
73780;SHT30;62093;37.614;15.072;2022-10-16T03:47:41;19.05;63.40
73780;SHT30;62093;37.614;15.072;2022-10-16T03:50:07;19.05;63.25
73780;SHT30;62093;37.614;15.072;2022-10-16T03:52:34;18.99;63.12
73780;SHT30;62093;37.614;15.072;2022-10-16T03:54:59;19.09;63.56
73780;SHT30;62093;37.614;15.072;2022-10-16T03:57:25;19.06;63.07
73780;SHT30;62093;37.614;15.072;2022-10-16T03:59:51;19.02;62.94
73780;SHT30;62093;37.614;15.072;2022-10-16T04:02:17;18.95;63.43
73780;SHT30;62093;37.614;15.072;2022-10-16T04:04:43;18.98;62.82
73780;SHT30;62093;37.614;15.072;2022-10-16T04:07:09;18.95;62.96
73780;SHT30;62093;37.614;15.072;2022-10-16T04:09:34;19.04;62.95
73780;SHT30;62093;37.614;15.072;2022-10-16T04:12:00;19.05;62.89
73780;SHT30;62093;37.614;15.072;2022-10-16T04:14:26;18.92;62.98
73780;SHT30;62093;37.614;15.072;2022-10-16T04:16:52;19.01;63.57
73780;SHT30;62093;37.614;15.072;2022-10-16T04:19:18;19.01;63.40
73780;SHT30;62093;37.614;15.072;2022-10-16T04:21:44;19.02;62.87
73780;SHT30;62093;37.614;15.072;2022-10-16T04:24:10;18.98;62.58
73780;SHT30;62093;37.614;15.072;2022-10-16T04:26:37;19.02;62.85
73780;SHT30;62093;37.614;15.072;2022-10-16T04:29:03;18.94;63.04
73780;SHT30;62093;37.614;15.072;2022-10-16T04:31:29;18.95;63.05
73780;SHT30;62093;37.614;15.072;2022-10-16T04:33:55;18.98;62.79
73780;SHT30;62093;37.614;15.072;2022-10-16T04:36:21;18.94;62.23
73780;SHT30;62093;37.614;15.072;2022-10-16T04:38:46;18.99;62.84
73780;SHT30;62093;37.614;15.072;2022-10-16T04:41:12;18.96;62.70
73780;SHT30;62093;37.614;15.072;2022-10-16T04:43:39;18.95;62.77
73780;SHT30;62093;37.614;15.072;2022-10-16T04:46:04;18.96;62.86
73780;SHT30;62093;37.614;15.072;2022-10-16T04:48:31;18.85;62.50
73780;SHT30;62093;37.614;15.072;2022-10-16T04:50:57;18.83;62.70
73780;SHT30;62093;37.614;15.072;2022-10-16T04:53:23;18.88;62.69
73780;SHT30;62093;37.614;15.072;2022-10-16T04:55:49;18.88;62.98
73780;SHT30;62093;37.614;15.072;2022-10-16T04:58:16;18.96;62.06
73780;SHT30;62093;37.614;15.072;2022-10-16T05:00:42;18.89;61.76
73780;SHT30;62093;37.614;15.072;2022-10-16T05:03:07;18.84;62.09
73780;SHT30;62093;37.614;15.072;2022-10-16T05:05:35;18.84;62.04
73780;SHT30;62093;37.614;15.072;2022-10-16T05:08:01;18.81;62.11
73780;SHT30;62093;37.614;15.072;2022-10-16T05:10:27;18.83;62.66
73780;SHT30;62093;37.614;15.072;2022-10-16T05:12:54;18.81;62.63
73780;SHT30;62093;37.614;15.072;2022-10-16T05:15:19;18.81;62.48
73780;SHT30;62093;37.614;15.072;2022-10-16T05:17:45;18.81;62.62
73780;SHT30;62093;37.614;15.072;2022-10-16T05:20:11;18.91;62.64
73780;SHT30;62093;37.614;15.072;2022-10-16T05:22:37;18.89;62.45
73780;SHT30;62093;37.614;15.072;2022-10-16T05:25:04;18.92;62.37
73780;SHT30;62093;37.614;15.072;2022-10-16T05:27:30;18.95;61.97
73780;SHT30;62093;37.614;15.072;2022-10-16T05:29:55;18.91;61.98
73780;SHT30;62093;37.614;15.072;2022-10-16T05:32:21;18.88;61.08
73780;SHT30;62093;37.614;15.072;2022-10-16T05:34:47;18.88;61.35
73780;SHT30;62093;37.614;15.072;2022-10-16T05:37:13;18.75;61.96
73780;SHT30;62093;37.614;15.072;2022-10-16T05:39:39;18.78;61.77
73780;SHT30;62093;37.614;15.072;2022-10-16T05:42:05;18.95;62.44
73780;SHT30;62093;37.614;15.072;2022-10-16T05:44:31;18.96;61.32
73780;SHT30;62093;37.614;15.072;2022-10-16T05:46:57;18.98;61.74
73780;SHT30;62093;37.614;15.072;2022-10-16T05:49:23;18.98;61.28
73780;SHT30;62093;37.614;15.072;2022-10-16T05:51:49;18.96;61.34
73780;SHT30;62093;37.614;15.072;2022-10-16T05:54:15;18.88;61.87
73780;SHT30;62093;37.614;15.072;2022-10-16T05:56:41;18.89;61.75
73780;SHT30;62093;37.614;15.072;2022-10-16T05:59:07;18.94;61.49
73780;SHT30;62093;37.614;15.072;2022-10-16T06:01:33;19.08;61.15
73780;SHT30;62093;37.614;15.072;2022-10-16T06:03:59;19.09;61.10
73780;SHT30;62093;37.614;15.072;2022-10-16T06:06:27;19.18;61.51
73780;SHT30;62093;37.614;15.072;2022-10-16T06:08:55;19.12;61.58
73780;SHT30;62093;37.614;15.072;2022-10-16T06:11:26;19.30;61.39
73780;SHT30;62093;37.614;15.072;2022-10-16T06:13:54;19.26;61.67
73780;SHT30;62093;37.614;15.072;2022-10-16T06:16:23;19.26;61.41
73780;SHT30;62093;37.614;15.072;2022-10-16T06:18:51;19.32;61.80
73780;SHT30;62093;37.614;15.072;2022-10-16T06:21:20;19.30;61.66
73780;SHT30;62093;37.614;15.072;2022-10-16T06:23:47;19.37;61.42
73780;SHT30;62093;37.614;15.072;2022-10-16T06:26:15;19.43;61.66
73780;SHT30;62093;37.614;15.072;2022-10-16T06:28:41;19.39;61.20
73780;SHT30;62093;37.614;15.072;2022-10-16T06:31:08;19.43;61.70
73780;SHT30;62093;37.614;15.072;2022-10-16T06:33:36;19.40;61.68
73780;SHT30;62093;37.614;15.072;2022-10-16T06:36:07;19.36;60.72
73780;SHT30;62093;37.614;15.072;2022-10-16T06:38:34;19.39;61.68
73780;SHT30;62093;37.614;15.072;2022-10-16T06:41:00;19.47;61.38
73780;SHT30;62093;37.614;15.072;2022-10-16T06:43:28;19.37;61.28
73780;SHT30;62093;37.614;15.072;2022-10-16T06:45:56;19.37;61.89
73780;SHT30;62093;37.614;15.072;2022-10-16T06:48:23;19.37;61.41
73780;SHT30;62093;37.614;15.072;2022-10-16T06:51:10;19.40;61.83
73780;SHT30;62093;37.614;15.072;2022-10-16T06:53:38;19.56;61.53
73780;SHT30;62093;37.614;15.072;2022-10-16T06:56:13;19.54;61.54
73780;SHT30;62093;37.614;15.072;2022-10-16T06:58:39;19.53;61.44
73780;SHT30;62093;37.614;15.072;2022-10-16T07:01:06;19.52;61.56
73780;SHT30;62093;37.614;15.072;2022-10-16T07:03:36;19.57;61.53
73780;SHT30;62093;37.614;15.072;2022-10-16T07:06:04;19.60;61.53
73780;SHT30;62093;37.614;15.072;2022-10-16T07:08:34;19.62;61.53
73780;SHT30;62093;37.614;15.072;2022-10-16T07:11:03;19.60;61.42
73780;SHT30;62093;37.614;15.072;2022-10-16T07:13:29;19.52;61.70
73780;SHT30;62093;37.614;15.072;2022-10-16T07:15:54;19.60;61.47
73780;SHT30;62093;37.614;15.072;2022-10-16T07:18:20;19.63;61.46
73780;SHT30;62093;37.614;15.072;2022-10-16T07:20:46;19.62;61.48
73780;SHT30;62093;37.614;15.072;2022-10-16T07:23:12;19.60;61.58
73780;SHT30;62093;37.614;15.072;2022-10-16T07:25:38;19.62;61.52
73780;SHT30;62093;37.614;15.072;2022-10-16T07:28:03;19.66;61.52
73780;SHT30;62093;37.614;15.072;2022-10-16T07:30:29;19.64;61.58
73780;SHT30;62093;37.614;15.072;2022-10-16T07:32:55;19.66;61.51
73780;SHT30;62093;37.614;15.072;2022-10-16T07:35:21;19.57;60.15
73780;SHT30;62093;37.614;15.072;2022-10-16T07:37:47;19.56;61.25
73780;SHT30;62093;37.614;15.072;2022-10-16T07:40:13;19.57;60.09
73780;SHT30;62093;37.614;15.072;2022-10-16T07:42:39;19.50;60.02
73780;SHT30;62093;37.614;15.072;2022-10-16T07:45:05;19.53;60.57
73780;SHT30;62093;37.614;15.072;2022-10-16T07:47:31;19.62;60.80
73780;SHT30;62093;37.614;15.072;2022-10-16T07:49:57;19.60;60.49
73780;SHT30;62093;37.614;15.072;2022-10-16T07:52:23;19.57;60.71
73780;SHT30;62093;37.614;15.072;2022-10-16T07:54:49;19.56;60.33
73780;SHT30;62093;37.614;15.072;2022-10-16T07:57:14;19.57;60.23
73780;SHT30;62093;37.614;15.072;2022-10-16T07:59:45;19.56;59.93
73780;SHT30;62093;37.614;15.072;2022-10-16T08:02:12;19.56;60.64
73780;SHT30;62093;37.614;15.072;2022-10-16T08:04:38;19.57;61.06
73780;SHT30;62093;37.614;15.072;2022-10-16T08:07:03;19.60;61.25
73780;SHT30;62093;37.614;15.072;2022-10-16T08:09:29;19.60;61.24
73780;SHT30;62093;37.614;15.072;2022-10-16T08:11:55;19.63;61.10
73780;SHT30;62093;37.614;15.072;2022-10-16T08:14:21;19.69;61.74
73780;SHT30;62093;37.614;15.072;2022-10-16T08:16:46;19.71;62.00
73780;SHT30;62093;37.614;15.072;2022-10-16T08:19:12;19.73;61.60
73780;SHT30;62093;37.614;15.072;2022-10-16T08:21:38;19.77;62.07
73780;SHT30;62093;37.614;15.072;2022-10-16T08:24:04;19.73;62.24
73780;SHT30;62093;37.614;15.072;2022-10-16T08:26:30;19.73;62.42
73780;SHT30;62093;37.614;15.072;2022-10-16T08:28:56;19.66;62.16
73780;SHT30;62093;37.614;15.072;2022-10-16T08:31:22;19.71;62.30
73780;SHT30;62093;37.614;15.072;2022-10-16T08:33:49;19.73;62.12
73780;SHT30;62093;37.614;15.072;2022-10-16T08:36:16;19.71;62.22
73780;SHT30;62093;37.614;15.072;2022-10-16T08:38:42;19.74;62.52
73780;SHT30;62093;37.614;15.072;2022-10-16T08:41:22;19.73;62.54
73780;SHT30;62093;37.614;15.072;2022-10-16T08:47:19;19.78;62.35
73780;SHT30;62093;37.614;15.072;2022-10-16T08:49:37;19.83;62.38
73780;SHT30;62093;37.614;15.072;2022-10-16T08:52:10;19.78;62.36
73780;SHT30;62093;37.614;15.072;2022-10-16T08:54:41;19.84;62.31
73780;SHT30;62093;37.614;15.072;2022-10-16T08:57:26;19.93;62.47
73780;SHT30;62093;37.614;15.072;2022-10-16T08:59:53;19.95;62.40
73780;SHT30;62093;37.614;15.072;2022-10-16T09:02:38;20.00;62.65
73780;SHT30;62093;37.614;15.072;2022-10-16T09:10:26;19.95;63.56
73780;SHT30;62093;37.614;15.072;2022-10-16T09:13:21;20.01;62.95
73780;SHT30;62093;37.614;15.072;2022-10-16T09:18:48;20.10;63.38
73780;SHT30;62093;37.614;15.072;2022-10-16T09:21:37;20.10;63.70
73780;SHT30;62093;37.614;15.072;2022-10-16T09:24:14;20.18;63.92
73780;SHT30;62093;37.614;15.072;2022-10-16T09:26:42;20.18;63.73
73780;SHT30;62093;37.614;15.072;2022-10-16T09:29:15;20.20;64.27
73780;SHT30;62093;37.614;15.072;2022-10-16T09:31:42;20.27;64.88
73780;SHT30;62093;37.614;15.072;2022-10-16T09:36:46;20.25;65.01
73780;SHT30;62093;37.614;15.072;2022-10-16T09:39:12;20.25;65.06
73780;SHT30;62093;37.614;15.072;2022-10-16T09:41:41;20.27;65.04
73780;SHT30;62093;37.614;15.072;2022-10-16T09:44:34;20.31;65.07
73780;SHT30;62093;37.614;15.072;2022-10-16T09:49:51;20.34;65.19
73780;SHT30;62093;37.614;15.072;2022-10-16T09:52:18;20.31;65.23
73780;SHT30;62093;37.614;15.072;2022-10-16T09:54:52;20.34;65.06
73780;SHT30;62093;37.614;15.072;2022-10-16T09:57:18;20.34;65.00
73780;SHT30;62093;37.614;15.072;2022-10-16T09:59:50;20.36;65.10
73780;SHT30;62093;37.614;15.072;2022-10-16T10:02:18;20.35;65.00
73780;SHT30;62093;37.614;15.072;2022-10-16T10:04:51;20.32;64.84
73780;SHT30;62093;37.614;15.072;2022-10-16T10:07:32;20.31;64.95
73780;SHT30;62093;37.614;15.072;2022-10-16T10:10:00;20.36;65.22
73780;SHT30;62093;37.614;15.072;2022-10-16T10:12:33;20.34;65.01
73780;SHT30;62093;37.614;15.072;2022-10-16T10:15:10;20.41;65.07
73780;SHT30;62093;37.614;15.072;2022-10-16T10:17:46;20.39;65.20
73780;SHT30;62093;37.614;15.072;2022-10-16T10:20:26;20.38;65.09
73780;SHT30;62093;37.614;15.072;2022-10-16T10:22:54;20.41;65.21
73780;SHT30;62093;37.614;15.072;2022-10-16T10:26:32;20.36;65.33
73780;SHT30;62093;37.614;15.072;2022-10-16T10:31:20;20.31;65.38
73780;SHT30;62093;37.614;15.072;2022-10-16T10:33:54;20.32;65.39
73780;SHT30;62093;37.614;15.072;2022-10-16T10:36:40;20.31;65.29
73780;SHT30;62093;37.614;15.072;2022-10-16T10:44:27;20.32;65.17
73780;SHT30;62093;37.614;15.072;2022-10-16T10:47:04;20.34;65.17
73780;SHT30;62093;37.614;15.072;2022-10-16T10:49:57;20.36;65.11
73780;SHT30;62093;37.614;15.072;2022-10-16T10:52:47;20.38;65.04
73780;SHT30;62093;37.614;15.072;2022-10-16T10:55:27;20.36;64.96
73780;SHT30;62093;37.614;15.072;2022-10-16T11:03:25;20.41;64.67
73780;SHT30;62093;37.614;15.072;2022-10-16T11:05:57;20.44;64.63
73780;SHT30;62093;37.614;15.072;2022-10-16T11:09:00;20.46;64.77
73780;SHT30;62093;37.614;15.072;2022-10-16T11:11:35;20.46;64.59
73780;SHT30;62093;37.614;15.072;2022-10-16T11:19:51;20.55;65.11
73780;SHT30;62093;37.614;15.072;2022-10-16T11:25:13;20.55;65.31
73780;SHT30;62093;37.614;15.072;2022-10-16T11:30:41;20.55;65.21
73780;SHT30;62093;37.614;15.072;2022-10-16T11:35:39;20.49;65.17
73780;SHT30;62093;37.614;15.072;2022-10-16T11:40:59;20.51;65.30
73780;SHT30;62093;37.614;15.072;2022-10-16T11:46:20;20.48;65.34
73780;SHT30;62093;37.614;15.072;2022-10-16T11:49:11;20.45;65.30
73780;SHT30;62093;37.614;15.072;2022-10-16T11:57:53;20.52;65.11
73780;SHT30;62093;37.614;15.072;2022-10-16T12:00:40;20.51;64.93
73780;SHT30;62093;37.614;15.072;2022-10-16T12:08:35;20.53;64.95
73780;SHT30;62093;37.614;15.072;2022-10-16T12:16:59;20.56;64.83
73780;SHT30;62093;37.614;15.072;2022-10-16T12:19:29;20.55;64.74
73780;SHT30;62093;37.614;15.072;2022-10-16T12:21:58;20.58;64.66
73780;SHT30;62093;37.614;15.072;2022-10-16T12:24:39;20.56;64.63
73780;SHT30;62093;37.614;15.072;2022-10-16T12:27:28;20.56;64.76
73780;SHT30;62093;37.614;15.072;2022-10-16T12:29:56;20.56;64.69
73780;SHT30;62093;37.614;15.072;2022-10-16T12:32:39;20.61;64.85
73780;SHT30;62093;37.614;15.072;2022-10-16T12:35:16;20.56;64.74
73780;SHT30;62093;37.614;15.072;2022-10-16T12:37:42;20.56;64.71
73780;SHT30;62093;37.614;15.072;2022-10-16T12:40:16;20.62;64.61
73780;SHT30;62093;37.614;15.072;2022-10-16T12:42:49;20.59;64.66
73780;SHT30;62093;37.614;15.072;2022-10-16T12:45:30;20.56;64.73
73780;SHT30;62093;37.614;15.072;2022-10-16T12:47:57;20.59;64.48
73780;SHT30;62093;37.614;15.072;2022-10-16T12:52:52;20.62;64.91
73780;SHT30;62093;37.614;15.072;2022-10-16T12:55:20;20.61;64.95
73780;SHT30;62093;37.614;15.072;2022-10-16T13:03:41;20.59;64.90
73780;SHT30;62093;37.614;15.072;2022-10-16T13:06:23;20.61;64.90
73780;SHT30;62093;37.614;15.072;2022-10-16T13:14:25;20.65;65.25
73780;SHT30;62093;37.614;15.072;2022-10-16T13:17:22;20.65;65.10
73780;SHT30;62093;37.614;15.072;2022-10-16T13:23:23;20.64;64.57
73780;SHT30;62093;37.614;15.072;2022-10-16T13:29:01;20.66;64.04
73780;SHT30;62093;37.614;15.072;2022-10-16T13:31:28;20.68;64.37
73780;SHT30;62093;37.614;15.072;2022-10-16T13:33:57;20.66;64.35
73780;SHT30;62093;37.614;15.072;2022-10-16T13:36:42;20.68;64.58
73780;SHT30;62093;37.614;15.072;2022-10-16T13:39:24;20.65;63.89
73780;SHT30;62093;37.614;15.072;2022-10-16T13:42:05;20.62;64.23
73780;SHT30;62093;37.614;15.072;2022-10-16T13:44:49;20.64;64.08
73780;SHT30;62093;37.614;15.072;2022-10-16T13:47:19;20.62;63.78
73780;SHT30;62093;37.614;15.072;2022-10-16T13:49:46;20.65;64.18
73780;SHT30;62093;37.614;15.072;2022-10-16T13:52:18;20.66;64.11
73780;SHT30;62093;37.614;15.072;2022-10-16T13:54:45;20.66;63.92
73780;SHT30;62093;37.614;15.072;2022-10-16T13:57:15;20.66;63.91
73780;SHT30;62093;37.614;15.072;2022-10-16T13:59:41;20.66;63.99
73780;SHT30;62093;37.614;15.072;2022-10-16T14:02:38;20.65;63.92
73780;SHT30;62093;37.614;15.072;2022-10-16T14:05:15;20.66;63.96
73780;SHT30;62093;37.614;15.072;2022-10-16T14:07:47;20.65;63.85
73780;SHT30;62093;37.614;15.072;2022-10-16T14:10:27;20.65;63.88
73780;SHT30;62093;37.614;15.072;2022-10-16T14:13:03;20.71;64.07
73780;SHT30;62093;37.614;15.072;2022-10-16T14:15:35;20.72;64.02
73780;SHT30;62093;37.614;15.072;2022-10-16T14:18:03;20.73;64.16
73780;SHT30;62093;37.614;15.072;2022-10-16T14:20:33;20.77;63.88
73780;SHT30;62093;37.614;15.072;2022-10-16T14:25:47;20.66;63.98
73780;SHT30;62093;37.614;15.072;2022-10-16T14:28:23;20.65;64.08
73780;SHT30;62093;37.614;15.072;2022-10-16T14:30:58;20.66;64.17
73780;SHT30;62093;37.614;15.072;2022-10-16T14:33:32;20.62;64.12
73780;SHT30;62093;37.614;15.072;2022-10-16T14:38:35;20.71;64.35
73780;SHT30;62093;37.614;15.072;2022-10-16T14:41:11;20.72;64.20
73780;SHT30;62093;37.614;15.072;2022-10-16T14:43:42;20.62;64.12
73780;SHT30;62093;37.614;15.072;2022-10-16T14:46:18;20.56;63.86
73780;SHT30;62093;37.614;15.072;2022-10-16T14:49:18;20.48;63.99
73780;SHT30;62093;37.614;15.072;2022-10-16T14:51:52;20.49;64.05
73780;SHT30;62093;37.614;15.072;2022-10-16T14:54:24;20.49;64.33
73780;SHT30;62093;37.614;15.072;2022-10-16T14:56:57;20.44;64.65
73780;SHT30;62093;37.614;15.072;2022-10-16T14:59:48;20.44;65.05
73780;SHT30;62093;37.614;15.072;2022-10-16T15:02:34;20.46;65.11
73780;SHT30;62093;37.614;15.072;2022-10-16T15:05:20;20.53;65.16
73780;SHT30;62093;37.614;15.072;2022-10-16T15:07:54;20.58;64.98
73780;SHT30;62093;37.614;15.072;2022-10-16T15:10:22;20.61;64.91
73780;SHT30;62093;37.614;15.072;2022-10-16T15:12:49;20.58;65.14
73780;SHT30;62093;37.614;15.072;2022-10-16T15:17:46;20.52;65.82
73780;SHT30;62093;37.614;15.072;2022-10-16T15:20:13;20.48;65.96
73780;SHT30;62093;37.614;15.072;2022-10-16T15:22:39;20.48;66.23
73780;SHT30;62093;37.614;15.072;2022-10-16T15:25:36;20.45;66.31
73780;SHT30;62093;37.614;15.072;2022-10-16T15:28:03;20.42;66.46
73780;SHT30;62093;37.614;15.072;2022-10-16T15:30:30;20.45;66.64
73780;SHT30;62093;37.614;15.072;2022-10-16T15:32:56;20.42;66.58
73780;SHT30;62093;37.614;15.072;2022-10-16T15:35:22;20.44;66.48
73780;SHT30;62093;37.614;15.072;2022-10-16T15:37:48;20.46;66.51
73780;SHT30;62093;37.614;15.072;2022-10-16T15:40:16;20.42;66.84
73780;SHT30;62093;37.614;15.072;2022-10-16T15:42:42;20.39;66.84
73780;SHT30;62093;37.614;15.072;2022-10-16T15:45:09;20.41;66.79
73780;SHT30;62093;37.614;15.072;2022-10-16T15:47:35;20.35;66.89
73780;SHT30;62093;37.614;15.072;2022-10-16T15:50:02;20.31;67.02
73780;SHT30;62093;37.614;15.072;2022-10-16T15:52:29;20.28;67.03
73780;SHT30;62093;37.614;15.072;2022-10-16T15:54:58;20.28;66.98
73780;SHT30;62093;37.614;15.072;2022-10-16T15:57:24;20.21;67.09
73780;SHT30;62093;37.614;15.072;2022-10-16T15:59:50;20.20;67.11
73780;SHT30;62093;37.614;15.072;2022-10-16T16:02:16;20.18;67.18
73780;SHT30;62093;37.614;15.072;2022-10-16T16:04:42;20.17;67.26
73780;SHT30;62093;37.614;15.072;2022-10-16T16:07:08;20.14;67.36
73780;SHT30;62093;37.614;15.072;2022-10-16T16:09:34;20.10;67.40
73780;SHT30;62093;37.614;15.072;2022-10-16T16:12:00;20.10;67.53
73780;SHT30;62093;37.614;15.072;2022-10-16T16:14:27;20.01;67.73
73780;SHT30;62093;37.614;15.072;2022-10-16T16:16:54;20.01;67.78
73780;SHT30;62093;37.614;15.072;2022-10-16T16:19:21;19.97;67.92
73780;SHT30;62093;37.614;15.072;2022-10-16T16:21:47;20.03;67.82
73780;SHT30;62093;37.614;15.072;2022-10-16T16:24:13;20.04;67.72
73780;SHT30;62093;37.614;15.072;2022-10-16T16:26:39;20.05;67.75
73780;SHT30;62093;37.614;15.072;2022-10-16T16:29:14;20.07;67.67
73780;SHT30;62093;37.614;15.072;2022-10-16T16:31:41;20.04;67.63
73780;SHT30;62093;37.614;15.072;2022-10-16T16:34:07;20.00;67.82
73780;SHT30;62093;37.614;15.072;2022-10-16T16:36:34;19.98;67.92
73780;SHT30;62093;37.614;15.072;2022-10-16T16:39:00;19.95;68.05
73780;SHT30;62093;37.614;15.072;2022-10-16T16:41:28;19.86;68.24
73780;SHT30;62093;37.614;15.072;2022-10-16T16:44:01;19.88;68.06
73780;SHT30;62093;37.614;15.072;2022-10-16T16:46:27;19.97;67.91
73780;SHT30;62093;37.614;15.072;2022-10-16T16:48:53;19.94;67.82
73780;SHT30;62093;37.614;15.072;2022-10-16T16:51:21;19.93;67.71
73780;SHT30;62093;37.614;15.072;2022-10-16T16:53:52;19.91;67.58
73780;SHT30;62093;37.614;15.072;2022-10-16T16:56:20;19.91;67.55
73780;SHT30;62093;37.614;15.072;2022-10-16T16:58:47;19.88;67.58
73780;SHT30;62093;37.614;15.072;2022-10-16T17:01:14;19.88;67.56
73780;SHT30;62093;37.614;15.072;2022-10-16T17:03:42;19.87;67.55
73780;SHT30;62093;37.614;15.072;2022-10-16T17:06:13;19.84;67.56
73780;SHT30;62093;37.614;15.072;2022-10-16T17:08:40;19.84;67.88
73780;SHT30;62093;37.614;15.072;2022-10-16T17:11:11;19.88;67.51
73780;SHT30;62093;37.614;15.072;2022-10-16T17:13:38;19.83;67.56
73780;SHT30;62093;37.614;15.072;2022-10-16T17:16:05;19.81;67.59
73780;SHT30;62093;37.614;15.072;2022-10-16T17:18:32;19.76;67.58
73780;SHT30;62093;37.614;15.072;2022-10-16T17:21:03;19.77;67.58